KDSM METAR and TAF | Updated Today

KDSM METAR

Des Moines International Airport

Observation time: 14 min. ago

KDSM 301854Z 00000KT 10SM FEW120 FEW250 12/M01 A3015 RMK AO2 SLP212 T01221006

Need help? Read our tutorial on how to read METARs or read the parsed version below.

Des Moines International Airport (KDSM) METAR

  • Weather conditions on Tue, 30 Nov 2021 18:54:00 +0000 (14 min. ago):
  • Present conditions: Dry
  • Clouds: A few at 3658 meters; a few at 7620 meters
  • Visibility: 16093 meters
  • Wind: Calm
  • Temperature: 12 celsius
  • Dew point: -1 celsius
  • Pressure: 30.15 inHg
  • Remarks: AO2 SLP212 T01221006


Useful to know...

KDSM TAF

Des Moines International Airport

KDSM 301735Z 3018/0118 35006KT P6SM FEW120 FEW250 FM011100 25008KT P6SM BKN100
Observation time: 1:33 hr. ago
Need help? Read our tutorial on how to read TAFs or read the parsed version below.

Parsed version of TAF for Des Moines International Airport (KDSM)

  • From 30 November at 18:00 UTC, to day 01 of the month at 18:00 UTC
  • Clouds: A few at 3658 meters; a few at 7620 meters
  • Wind: 350 degrees at 6
  • From day 1 of the month at 11:00 UTC
  • Clouds: Broken sky at 3048 meters
  • Wind: 250 degrees at 8

Airports near KDSM

KAMW Weather
Region: Ames

Ames Municipal Airport

Not found in our database
KBNW Weather
Region: Boone

Boone Municipal Airport

Not found in our database
KPRO Weather
Region: Perry

Perry Municipal Airport

Not found in our database